Marcellus, MI

1:09 PM EST on February 14, 2016 (GMT -0500)
Farming/Agriculture | | Change Station
CLOSE
Current Station
Personal Weather Station
Location: Decatur, MI
Elevation: 864 ft
Nearby Weather Stations

Elev 864 ft 42.05 °N, 85.91 °W | Updated 24 seconds ago

Partly Cloudy
Partly Cloudy
21.9 °F
Feels Like 14 °F
N
6.0
Wind Variable Wind from ESE
Gusts 15.7 mph

Today
High -- | Low -- °F
--% Chance of Precip.
Yesterday
High -- | Low -- °F
Precip. -- in
Pressure 30.31 in
Visibility 10.0 miles
Clouds Clear
Windchill 14 °F
Dew Point 4 °F
Humidity 45%
Rainfall 0.00 in
Snow Depth Not available.
7:41 AM 6:14 PM
Waxing Crescent, 44% visible
METAR KHAI 141755Z AUTO 13011KT 10SM CLR M09/M14 A3031 RMK AO2 T10901145 11088 21175
Pressure 30.31 in
Visibility 10.0 miles
Clouds Clear
Windchill 14 °F
Dew Point 4 °F
Humidity 45%
Rainfall 0.00 in
Snow Depth Not available.
7:41 AM 6:14 PM
Waxing Crescent, 44% visible
METAR KHAI 141755Z AUTO 13011KT 10SM CLR M09/M14 A3031 RMK AO2 T10901145 11088 21175

10-Day Weather Forecast

Almanac

Astronomy

Feb. 14, 2016 Rise Set
Actual Time
Civil Twilight
Nautical Twilight
Astronomical Twilight
Moon
Length of Visible Light
Length of Day
Tomorrow will be .
, % of the Moon is Illuminated

Today's Extremes

State Highs State Lows

Community

WunderPhotos

Upload Photos

1,892,866 photos uploaded!

WunderBlog® & News

Nearby

Air Quality

  Air Quality AQ Index Pollutant
Not available.

Snow Depth

Station Depth Elevation

Earthquake Activity

City Distance Mag. Time & Date
Minimum magnitude displayed is 2.5.

Coastal Water Temperatures

Place Temperature

Stations

Nearby Weather Stations

Station Location Temp. Windchill Dew Point Humidity Wind Precip. Elev Updated Type
                   

Watches & Warnings

There are currently no watches in effect.